createdAt,value
2022-10-18T00:00:46.297Z,12.27
2022-10-18T00:03:13.207Z,11.90
2022-10-18T00:05:40.147Z,13.68
2022-10-18T00:08:07.125Z,12.77
2022-10-18T00:10:34.143Z,11.80
2022-10-18T00:13:01.146Z,12.43
2022-10-18T00:15:28.159Z,15.05
2022-10-18T00:17:55.303Z,16.00
2022-10-18T00:20:22.412Z,25.58
2022-10-18T00:22:49.300Z,14.43
2022-10-18T00:25:16.556Z,19.15
2022-10-18T00:27:43.486Z,22.00
2022-10-18T00:30:10.941Z,23.00
2022-10-18T00:32:41.739Z,23.38
2022-10-18T00:35:09.297Z,20.88
2022-10-18T00:37:36.447Z,22.83
2022-10-18T00:40:03.946Z,23.38
2022-10-18T00:42:34.568Z,28.88
2022-10-18T00:45:14.771Z,24.67
2022-10-18T00:47:43.854Z,24.73
2022-10-18T00:50:11.446Z,26.00
2022-10-18T00:52:47.046Z,30.85
2022-10-18T00:55:13.974Z,34.13
2022-10-18T00:57:44.058Z,29.77
2022-10-18T01:00:12.162Z,34.73
2022-10-18T01:02:41.758Z,35.65
2022-10-18T01:05:10.510Z,39.30
2022-10-18T01:08:07.214Z,34.28
2022-10-18T01:11:10.921Z,37.60
2022-10-18T01:14:05.817Z,44.38
2022-10-18T01:17:03.787Z,33.53
2022-10-18T01:19:49.303Z,36.78
2022-10-18T01:22:36.395Z,36.33
2022-10-18T01:25:30.110Z,38.35
2022-10-18T01:28:27.395Z,39.90
2022-10-18T01:31:06.235Z,38.25
2022-10-18T01:33:51.160Z,35.00
2022-10-18T01:36:24.341Z,33.95
2022-10-18T01:38:55.491Z,31.77
2022-10-18T01:41:25.507Z,31.65
2022-10-18T01:43:57.521Z,37.20
2022-10-18T01:46:26.303Z,35.00
2022-10-18T01:48:54.719Z,31.30
2022-10-18T01:51:30.213Z,32.40
2022-10-18T01:53:58.218Z,30.77
2022-10-18T01:56:46.050Z,32.40
2022-10-18T01:59:37.948Z,32.63
2022-10-18T02:02:15.499Z,30.45
2022-10-18T02:04:56.058Z,30.88
2022-10-18T02:07:43.678Z,30.10
2022-10-18T02:10:16.593Z,36.55
2022-10-18T02:12:46.778Z,31.00
2022-10-18T02:15:19.548Z,28.85
2022-10-18T02:17:47.327Z,35.35
2022-10-18T02:20:18.216Z,33.25
2022-10-18T02:22:48.140Z,27.73
2022-10-18T02:25:20.385Z,37.90
2022-10-18T02:27:47.612Z,26.88
2022-10-18T02:30:15.874Z,30.17
2022-10-18T02:33:05.399Z,30.63
2022-10-18T02:35:45.683Z,32.38
2022-10-18T02:38:14.713Z,31.15
2022-10-18T02:40:41.645Z,29.77
2022-10-18T02:43:08.547Z,30.92
2022-10-18T02:45:35.826Z,28.77
2022-10-18T02:48:02.762Z,28.67
2022-10-18T02:50:29.640Z,29.65
2022-10-18T02:52:56.522Z,28.55
2022-10-18T02:55:23.497Z,28.55
2022-10-18T02:57:50.399Z,26.92
2022-10-18T03:00:17.389Z,25.30
2022-10-18T03:02:44.427Z,25.80
2022-10-18T03:05:11.393Z,26.65
2022-10-18T03:07:38.286Z,21.73
2022-10-18T03:10:05.642Z,21.80
2022-10-18T03:12:32.576Z,19.90
2022-10-18T03:14:59.495Z,19.15
2022-10-18T03:17:26.396Z,19.55
2022-10-18T03:19:53.294Z,25.90
2022-10-18T03:22:20.273Z,17.48
2022-10-18T03:24:47.220Z,22.10
2022-10-18T03:27:14.137Z,16.50
2022-10-18T03:29:41.163Z,16.95
2022-10-18T03:32:08.127Z,19.63
2022-10-18T03:34:35.054Z,17.75
2022-10-18T03:37:04.741Z,13.68
2022-10-18T03:39:32.470Z,18.02
2022-10-18T03:41:59.366Z,14.32
2022-10-18T03:44:26.240Z,12.48
2022-10-18T03:46:53.123Z,11.55
2022-10-18T03:49:20.119Z,12.45
2022-10-18T03:51:47.095Z,10.68
2022-10-18T03:54:13.987Z,9.35
2022-10-18T03:56:40.891Z,11.15
2022-10-18T03:59:07.818Z,7.97
2022-10-18T04:01:34.861Z,6.60
2022-10-18T04:04:01.818Z,8.82
2022-10-18T04:06:31.985Z,5.57
2022-10-18T04:08:58.881Z,5.90
2022-10-18T04:11:25.938Z,5.82
2022-10-18T04:13:52.821Z,4.05
2022-10-18T04:16:19.760Z,5.13
2022-10-18T04:18:46.685Z,4.40
2022-10-18T04:21:13.867Z,6.20
2022-10-18T04:23:40.794Z,6.22
2022-10-18T04:26:08.164Z,4.72
2022-10-18T04:28:40.059Z,5.15
2022-10-18T04:31:07.251Z,5.53
2022-10-18T04:33:34.229Z,4.82
2022-10-18T04:36:01.252Z,4.40
2022-10-18T04:38:28.499Z,4.25
2022-10-18T04:40:55.459Z,3.45
2022-10-18T04:43:22.407Z,4.68
2022-10-18T04:45:51.191Z,3.47
2022-10-18T04:48:18.676Z,4.68
2022-10-18T04:50:49.582Z,4.32
2022-10-18T04:55:45.693Z,3.97
2022-10-18T04:58:12.694Z,5.25
2022-10-18T05:00:40.131Z,3.22
2022-10-18T05:03:08.155Z,3.92
2022-10-18T05:05:50.049Z,3.80
2022-10-18T05:08:22.355Z,6.32
2022-10-18T05:10:49.318Z,4.20
2022-10-18T05:13:16.263Z,6.40
2022-10-18T05:15:43.208Z,6.30
2022-10-18T05:18:10.168Z,3.17
2022-10-18T05:20:37.110Z,6.25
2022-10-18T05:23:04.019Z,5.45
2022-10-18T05:25:30.983Z,4.68
2022-10-18T05:27:58.026Z,3.72
2022-10-18T05:30:27.086Z,7.55
2022-10-18T05:32:53.962Z,6.93
2022-10-18T05:35:20.906Z,5.35
2022-10-18T05:37:47.846Z,8.00
2022-10-18T05:40:14.817Z,5.80
2022-10-18T05:42:41.742Z,5.07
2022-10-18T05:45:09.252Z,9.80
2022-10-18T05:50:08.213Z,6.57
2022-10-18T05:52:35.228Z,8.25
2022-10-18T05:55:02.257Z,4.18
2022-10-18T05:57:29.286Z,5.82
2022-10-18T05:59:56.433Z,6.75
2022-10-18T06:02:23.444Z,6.30
2022-10-18T06:04:50.407Z,4.65
2022-10-18T06:07:17.422Z,6.97
2022-10-18T06:09:44.371Z,7.57
2022-10-18T06:12:11.280Z,5.20
2022-10-18T06:14:38.231Z,6.22
2022-10-18T06:17:05.423Z,4.75
2022-10-18T06:19:32.985Z,6.72
2022-10-18T06:21:59.905Z,6.40
2022-10-18T06:24:27.483Z,4.13
2022-10-18T06:26:54.420Z,4.75
2022-10-18T06:29:21.327Z,6.90
2022-10-18T06:31:48.244Z,6.13
2022-10-18T06:34:15.163Z,5.47
2022-10-18T06:36:42.068Z,5.65
2022-10-18T06:39:09.091Z,5.57
2022-10-18T06:41:36.009Z,6.18
2022-10-18T06:44:13.316Z,4.80
2022-10-18T06:46:44.849Z,6.88
2022-10-18T06:49:16.693Z,8.00
2022-10-18T06:51:46.323Z,7.22
2022-10-18T06:54:17.901Z,9.52
2022-10-18T06:56:45.675Z,5.43
2022-10-18T06:59:12.932Z,5.50
2022-10-18T07:01:39.985Z,6.00
2022-10-18T07:04:07.306Z,5.43
2022-10-18T07:06:34.266Z,7.20
2022-10-18T07:09:03.015Z,6.65
2022-10-18T07:11:29.936Z,5.55
2022-10-18T07:14:04.899Z,7.05
2022-10-18T07:16:33.639Z,4.80
2022-10-18T07:19:00.679Z,8.00
2022-10-18T07:21:28.211Z,6.18
2022-10-18T07:23:56.261Z,6.88
2022-10-18T07:26:27.202Z,11.85
2022-10-18T07:31:23.976Z,4.55
2022-10-18T07:33:52.270Z,8.95
2022-10-18T07:36:21.274Z,5.20
2022-10-18T07:38:49.372Z,6.50
2022-10-18T07:41:16.285Z,3.85
2022-10-18T07:43:49.184Z,5.32
2022-10-18T07:46:16.225Z,6.50
2022-10-18T07:48:43.381Z,6.45
2022-10-18T07:51:10.754Z,6.05
2022-10-18T07:53:37.910Z,2.83
2022-10-18T07:56:09.637Z,2.92
2022-10-18T07:58:36.977Z,5.05
2022-10-18T08:01:06.115Z,4.18
2022-10-18T08:03:34.174Z,5.75
2022-10-18T08:06:01.303Z,3.38
2022-10-18T08:08:28.982Z,7.82
2022-10-18T08:10:56.189Z,2.72
2022-10-18T08:13:23.095Z,5.75
2022-10-18T08:15:49.980Z,5.65
2022-10-18T08:18:16.912Z,3.58
2022-10-18T08:20:45.322Z,8.25
2022-10-18T08:23:12.551Z,2.92
2022-10-18T08:25:39.610Z,5.30
2022-10-18T08:28:07.083Z,7.82
2022-10-18T08:30:35.899Z,3.10
2022-10-18T08:33:03.842Z,4.30
2022-10-18T08:35:31.916Z,3.22
2022-10-18T08:37:59.519Z,4.35
2022-10-18T08:40:27.780Z,5.75
2022-10-18T08:43:12.820Z,4.18
2022-10-18T08:45:43.118Z,2.70
2022-10-18T08:48:47.375Z,4.07
2022-10-18T08:51:43.845Z,4.30
2022-10-18T08:54:15.316Z,3.22
2022-10-18T08:56:46.812Z,5.93
2022-10-18T08:59:13.953Z,3.17
2022-10-18T09:04:18.831Z,4.28
2022-10-18T09:07:04.250Z,3.55
2022-10-18T09:09:36.982Z,3.50
2022-10-18T09:12:30.298Z,4.93
2022-10-18T09:15:26.482Z,4.40
2022-10-18T09:18:12.046Z,4.22
2022-10-18T09:20:57.929Z,3.33
2022-10-18T09:23:40.612Z,7.47
2022-10-18T09:26:23.818Z,6.90
2022-10-18T09:29:28.329Z,2.92
2022-10-18T09:32:04.795Z,1.35
2022-10-18T09:34:39.246Z,8.40
2022-10-18T09:37:16.295Z,4.63
2022-10-18T09:39:43.923Z,4.43
2022-10-18T09:42:20.656Z,3.28
2022-10-18T09:44:55.821Z,3.10
2022-10-18T09:47:27.816Z,3.00
2022-10-18T09:50:35.589Z,4.50
2022-10-18T09:53:07.482Z,5.90
2022-10-18T09:55:40.716Z,6.18
2022-10-18T09:58:11.217Z,3.80
2022-10-18T10:00:54.696Z,5.00
2022-10-18T10:03:24.915Z,3.35
2022-10-18T10:06:17.257Z,4.43
2022-10-18T10:08:51.168Z,3.65
2022-10-18T10:11:33.681Z,2.92
2022-10-18T10:14:27.862Z,3.30
2022-10-18T10:17:08.529Z,3.15
2022-10-18T10:20:07.625Z,2.53
2022-10-18T10:22:38.184Z,7.60
2022-10-18T10:25:06.862Z,3.75
2022-10-18T10:27:45.214Z,3.67
2022-10-18T10:30:21.353Z,5.10
2022-10-18T10:32:50.674Z,3.35
2022-10-18T10:38:26.069Z,5.10
2022-10-18T10:40:53.365Z,5.23
2022-10-18T10:43:42.010Z,5.47
2022-10-18T10:46:13.105Z,5.82
2022-10-18T10:48:42.145Z,6.38
2022-10-18T10:51:12.547Z,9.63
2022-10-18T10:53:53.071Z,6.18
2022-10-18T10:56:32.259Z,7.72
2022-10-18T10:59:14.490Z,7.22
2022-10-18T11:01:41.925Z,3.90
2022-10-18T11:04:28.391Z,5.57
2022-10-18T11:07:30.799Z,7.80
2022-10-18T11:10:06.823Z,9.05
2022-10-18T11:15:45.270Z,3.85
2022-10-18T11:18:21.799Z,3.40
2022-10-18T11:20:49.236Z,4.63
2022-10-18T11:23:17.951Z,2.33
2022-10-18T11:26:10.981Z,2.97
2022-10-18T11:29:15.123Z,3.88
2022-10-18T11:32:22.883Z,6.03
2022-10-18T11:35:08.101Z,2.33
2022-10-18T11:37:43.991Z,4.78
2022-10-18T11:40:32.352Z,3.92
2022-10-18T11:43:30.367Z,2.80
2022-10-18T11:46:26.742Z,4.50
2022-10-18T11:49:10.671Z,2.35
2022-10-18T11:52:08.207Z,2.15
2022-10-18T11:54:53.637Z,6.35
2022-10-18T11:57:38.431Z,5.45
2022-10-18T12:00:23.970Z,6.30
2022-10-18T12:03:11.799Z,3.70
2022-10-18T12:05:41.402Z,7.60
2022-10-18T12:08:26.851Z,5.15
2022-10-18T12:11:05.149Z,5.55
2022-10-18T12:13:47.294Z,6.22
2022-10-18T12:16:15.241Z,3.88
2022-10-18T12:18:54.882Z,6.03
2022-10-18T12:21:25.768Z,6.97
2022-10-18T12:24:16.272Z,5.55
2022-10-18T12:26:43.363Z,5.18
2022-10-18T12:29:26.350Z,6.80
2022-10-18T12:32:05.867Z,8.73
2022-10-18T12:34:39.301Z,6.45
2022-10-18T12:37:29.679Z,9.40
2022-10-18T12:40:12.502Z,6.10
2022-10-18T12:42:48.095Z,7.40
2022-10-18T12:45:26.761Z,8.30
2022-10-18T12:47:55.644Z,10.25
2022-10-18T12:50:35.866Z,9.40
2022-10-18T12:53:14.991Z,4.07
2022-10-18T12:55:44.611Z,8.20
2022-10-18T12:58:14.883Z,6.38
2022-10-18T13:00:41.792Z,4.32
2022-10-18T13:03:16.680Z,2.15
2022-10-18T13:05:53.989Z,0.98
2022-10-18T13:08:28.226Z,4.93
2022-10-18T13:11:10.337Z,1.20
2022-10-18T13:13:50.697Z,2.58
2022-10-18T13:16:23.655Z,1.45
2022-10-18T20:50:19.230Z,15.80
2022-10-18T20:52:51.286Z,13.48
2022-10-18T20:55:18.904Z,12.57
2022-10-18T20:57:45.839Z,14.75
2022-10-18T21:00:13.321Z,13.23
2022-10-18T21:02:40.193Z,32.20
2022-10-18T21:05:07.282Z,20.60
2022-10-18T21:07:34.522Z,21.13
2022-10-18T21:10:01.766Z,16.77
2022-10-18T21:12:29.124Z,19.55
2022-10-18T21:14:56.208Z,18.35
2022-10-18T21:17:23.141Z,18.05
2022-10-18T21:19:50.040Z,16.73
2022-10-18T21:22:16.935Z,12.90
2022-10-18T21:24:48.538Z,9.85
2022-10-18T21:27:15.445Z,11.82
2022-10-18T21:29:42.347Z,7.63
2022-10-18T21:32:09.220Z,7.30
2022-10-18T21:34:36.124Z,7.85
2022-10-18T21:37:03.028Z,7.22
2022-10-18T21:39:30.206Z,9.82
2022-10-18T21:41:57.316Z,8.80
2022-10-18T21:44:24.371Z,6.38
2022-10-18T21:46:51.361Z,6.40
2022-10-18T21:49:18.755Z,8.88
2022-10-18T21:51:45.757Z,8.85
2022-10-18T21:54:15.249Z,11.85
2022-10-18T21:56:42.690Z,6.75
2022-10-18T21:59:12.170Z,3.20
2022-10-18T22:01:39.936Z,6.47
2022-10-18T22:04:16.410Z,5.03
2022-10-18T22:06:43.306Z,8.05
2022-10-18T22:09:10.491Z,4.47
2022-10-18T22:11:40.869Z,4.60
2022-10-18T22:14:08.147Z,6.65
2022-10-18T22:16:35.096Z,2.45
2022-10-18T22:19:04.145Z,3.35
2022-10-18T22:21:31.515Z,3.50
2022-10-18T22:23:59.129Z,4.35
2022-10-18T22:26:31.943Z,4.32
2022-10-18T22:29:01.256Z,2.33
2022-10-18T22:31:31.346Z,5.53
2022-10-18T22:34:07.457Z,3.83
2022-10-18T22:36:35.587Z,4.57
2022-10-18T22:39:02.976Z,3.88
2022-10-18T22:41:30.532Z,4.55
2022-10-18T22:43:59.754Z,5.40
2022-10-18T22:46:29.913Z,16.15
2022-10-18T22:48:56.839Z,8.27
2022-10-18T22:51:24.017Z,13.15
2022-10-18T22:53:50.999Z,19.80
2022-10-18T22:56:20.207Z,10.93
2022-10-18T22:58:48.244Z,10.23
2022-10-18T23:01:18.500Z,11.00
2022-10-18T23:03:45.464Z,36.30
2022-10-18T23:06:39.937Z,23.63
2022-10-18T23:09:08.597Z,17.17
2022-10-18T23:11:37.045Z,17.48
2022-10-18T23:14:06.220Z,16.27
2022-10-18T23:16:33.480Z,9.43
2022-10-18T23:19:00.480Z,5.63
